sensor_id;sensor_type;location;lat;lon;timestamp;noise_LAeq;noise_LA_min;noise_LA_max;noise_LA01;noise_LA95
73663;Laerm;61956;52.540;13.382;2023-07-09T00:00:26;64.64;59.62;67.23;;
73663;Laerm;61956;52.540;13.382;2023-07-09T00:02:57;64.64;60.55;67.28;;
73663;Laerm;61956;52.540;13.382;2023-07-09T00:05:26;64.65;60.10;67.06;;
73663;Laerm;61956;52.540;13.382;2023-07-09T00:07:55;64.62;61.03;66.95;;
73663;Laerm;61956;52.540;13.382;2023-07-09T00:10:30;64.68;60.86;67.27;;
73663;Laerm;61956;52.540;13.382;2023-07-09T00:13:01;64.58;60.98;67.17;;
73663;Laerm;61956;52.540;13.382;2023-07-09T00:15:32;64.67;60.35;67.37;;
73663;Laerm;61956;52.540;13.382;2023-07-09T00:18:02;64.68;60.53;67.19;;
73663;Laerm;61956;52.540;13.382;2023-07-09T00:20:31;64.71;60.22;67.08;;
73663;Laerm;61956;52.540;13.382;2023-07-09T00:23:00;64.69;60.94;67.04;;
73663;Laerm;61956;52.540;13.382;2023-07-09T00:25:30;64.70;61.20;67.08;;
73663;Laerm;61956;52.540;13.382;2023-07-09T00:28:02;64.67;59.34;67.29;;
73663;Laerm;61956;52.540;13.382;2023-07-09T00:30:35;64.68;60.50;67.18;;
73663;Laerm;61956;52.540;13.382;2023-07-09T00:33:06;64.75;61.15;67.46;;
73663;Laerm;61956;52.540;13.382;2023-07-09T00:35:41;64.71;60.86;67.17;;
73663;Laerm;61956;52.540;13.382;2023-07-09T00:38:14;64.67;60.78;67.02;;
73663;Laerm;61956;52.540;13.382;2023-07-09T00:43:18;63.90;60.43;66.45;;
73663;Laerm;61956;52.540;13.382;2023-07-09T00:49:05;64.27;60.55;66.72;;
73663;Laerm;61956;52.540;13.382;2023-07-09T00:51:40;64.32;60.87;66.89;;
73663;Laerm;61956;52.540;13.382;2023-07-09T00:54:22;64.48;59.59;66.98;;
73663;Laerm;61956;52.540;13.382;2023-07-09T00:57:00;64.50;60.75;66.99;;
73663;Laerm;61956;52.540;13.382;2023-07-09T00:59:33;64.54;60.28;66.87;;
73663;Laerm;61956;52.540;13.382;2023-07-09T01:02:06;64.54;60.29;67.09;;
73663;Laerm;61956;52.540;13.382;2023-07-09T01:04:36;64.62;58.33;67.32;;
73663;Laerm;61956;52.540;13.382;2023-07-09T01:07:07;64.60;60.39;67.29;;
73663;Laerm;61956;52.540;13.382;2023-07-09T01:09:36;64.70;60.22;66.90;;
73663;Laerm;61956;52.540;13.382;2023-07-09T01:12:09;64.55;60.37;67.06;;
73663;Laerm;61956;52.540;13.382;2023-07-09T01:14:40;64.61;60.65;66.95;;
73663;Laerm;61956;52.540;13.382;2023-07-09T01:17:13;64.65;60.33;67.23;;
73663;Laerm;61956;52.540;13.382;2023-07-09T01:19:48;64.71;61.52;67.35;;
73663;Laerm;61956;52.540;13.382;2023-07-09T01:22:23;64.73;60.59;66.99;;
73663;Laerm;61956;52.540;13.382;2023-07-09T01:25:00;64.71;60.43;67.12;;
73663;Laerm;61956;52.540;13.382;2023-07-09T01:27:36;64.65;60.50;67.23;;
73663;Laerm;61956;52.540;13.382;2023-07-09T01:30:12;64.62;60.38;67.12;;
73663;Laerm;61956;52.540;13.382;2023-07-09T01:32:43;64.74;60.49;67.25;;
73663;Laerm;61956;52.540;13.382;2023-07-09T01:35:15;64.68;60.27;67.33;;
73663;Laerm;61956;52.540;13.382;2023-07-09T01:37:48;64.60;59.09;67.16;;
73663;Laerm;61956;52.540;13.382;2023-07-09T01:40:21;64.73;60.79;67.47;;
73663;Laerm;61956;52.540;13.382;2023-07-09T01:42:51;64.76;60.09;67.45;;
73663;Laerm;61956;52.540;13.382;2023-07-09T01:45:21;64.78;60.26;67.35;;
73663;Laerm;61956;52.540;13.382;2023-07-09T01:47:51;64.77;59.28;67.52;;
73663;Laerm;61956;52.540;13.382;2023-07-09T01:50:21;64.77;60.07;67.09;;
73663;Laerm;61956;52.540;13.382;2023-07-09T01:52:54;64.74;59.60;67.32;;
73663;Laerm;61956;52.540;13.382;2023-07-09T01:55:24;64.75;60.67;67.00;;
73663;Laerm;61956;52.540;13.382;2023-07-09T01:57:53;64.73;60.47;67.33;;
73663;Laerm;61956;52.540;13.382;2023-07-09T02:00:22;64.80;60.50;67.40;;
73663;Laerm;61956;52.540;13.382;2023-07-09T02:02:52;64.77;59.97;67.08;;
73663;Laerm;61956;52.540;13.382;2023-07-09T02:05:21;64.76;60.11;67.19;;
73663;Laerm;61956;52.540;13.382;2023-07-09T02:07:55;64.68;59.71;67.28;;
73663;Laerm;61956;52.540;13.382;2023-07-09T02:10:25;64.73;59.57;67.38;;
73663;Laerm;61956;52.540;13.382;2023-07-09T02:12:55;64.72;59.53;67.42;;
73663;Laerm;61956;52.540;13.382;2023-07-09T02:15:25;64.74;60.06;67.50;;
73663;Laerm;61956;52.540;13.382;2023-07-09T02:17:56;64.74;60.56;67.18;;
73663;Laerm;61956;52.540;13.382;2023-07-09T02:20:27;64.76;59.79;67.45;;
73663;Laerm;61956;52.540;13.382;2023-07-09T02:22:59;64.73;59.69;67.33;;
73663;Laerm;61956;52.540;13.382;2023-07-09T02:25:30;64.70;59.76;67.08;;
73663;Laerm;61956;52.540;13.382;2023-07-09T02:28:02;64.73;60.00;66.97;;
73663;Laerm;61956;52.540;13.382;2023-07-09T02:30:31;64.74;60.06;67.01;;
73663;Laerm;61956;52.540;13.382;2023-07-09T02:33:01;64.69;59.02;67.43;;
73663;Laerm;61956;52.540;13.382;2023-07-09T02:35:30;64.75;60.04;67.53;;
73663;Laerm;61956;52.540;13.382;2023-07-09T02:38:04;64.76;60.09;67.26;;
73663;Laerm;61956;52.540;13.382;2023-07-09T02:40:33;64.78;59.58;67.25;;
73663;Laerm;61956;52.540;13.382;2023-07-09T02:43:02;64.74;60.12;67.08;;
73663;Laerm;61956;52.540;13.382;2023-07-09T02:45:31;64.80;60.08;67.60;;
73663;Laerm;61956;52.540;13.382;2023-07-09T02:48:01;64.79;59.13;67.18;;
73663;Laerm;61956;52.540;13.382;2023-07-09T02:50:36;64.73;59.88;67.13;;
73663;Laerm;61956;52.540;13.382;2023-07-09T02:53:07;64.76;59.19;67.24;;
73663;Laerm;61956;52.540;13.382;2023-07-09T02:55:36;64.72;58.99;67.14;;
73663;Laerm;61956;52.540;13.382;2023-07-09T02:58:06;64.72;60.40;67.19;;
73663;Laerm;61956;52.540;13.382;2023-07-09T03:00:35;64.75;59.16;67.63;;
73663;Laerm;61956;52.540;13.382;2023-07-09T03:03:04;64.71;59.42;67.07;;
73663;Laerm;61956;52.540;13.382;2023-07-09T03:05:33;64.69;58.98;67.15;;
73663;Laerm;61956;52.540;13.382;2023-07-09T03:08:03;64.71;59.88;67.17;;
73663;Laerm;61956;52.540;13.382;2023-07-09T03:10:35;64.73;60.28;67.18;;
73663;Laerm;61956;52.540;13.382;2023-07-09T03:13:04;64.72;60.14;67.19;;
73663;Laerm;61956;52.540;13.382;2023-07-09T03:15:33;64.65;59.46;67.28;;
73663;Laerm;61956;52.540;13.382;2023-07-09T03:18:03;64.69;59.94;67.64;;
73663;Laerm;61956;52.540;13.382;2023-07-09T03:20:32;64.73;59.58;67.15;;
73663;Laerm;61956;52.540;13.382;2023-07-09T03:23:01;64.66;59.79;67.11;;
73663;Laerm;61956;52.540;13.382;2023-07-09T03:25:31;64.74;59.91;67.70;;
73663;Laerm;61956;52.540;13.382;2023-07-09T03:28:03;64.63;60.30;67.27;;
73663;Laerm;61956;52.540;13.382;2023-07-09T03:30:32;64.62;59.60;67.03;;
73663;Laerm;61956;52.540;13.382;2023-07-09T03:33:02;64.64;58.97;67.27;;
73663;Laerm;61956;52.540;13.382;2023-07-09T03:35:31;64.64;60.40;67.08;;
73663;Laerm;61956;52.540;13.382;2023-07-09T03:40:29;64.29;60.22;70.61;;
73663;Laerm;61956;52.540;13.382;2023-07-09T03:43:01;64.34;60.46;66.84;;
73663;Laerm;61956;52.540;13.382;2023-07-09T03:45:31;64.42;60.09;67.07;;
73663;Laerm;61956;52.540;13.382;2023-07-09T03:48:01;64.25;59.40;67.23;;
73663;Laerm;61956;52.540;13.382;2023-07-09T03:50:31;64.44;58.80;66.98;;
73663;Laerm;61956;52.540;13.382;2023-07-09T03:53:00;64.55;59.90;67.16;;
73663;Laerm;61956;52.540;13.382;2023-07-09T03:55:29;64.57;59.77;67.29;;
73663;Laerm;61956;52.540;13.382;2023-07-09T03:57:58;64.60;59.07;67.12;;
73663;Laerm;61956;52.540;13.382;2023-07-09T04:00:32;64.62;59.31;67.54;;
73663;Laerm;61956;52.540;13.382;2023-07-09T04:03:02;64.61;59.53;67.34;;
73663;Laerm;61956;52.540;13.382;2023-07-09T04:05:34;64.54;60.18;67.19;;
73663;Laerm;61956;52.540;13.382;2023-07-09T04:08:04;64.61;59.16;67.38;;
73663;Laerm;61956;52.540;13.382;2023-07-09T04:10:33;64.56;59.04;67.31;;
73663;Laerm;61956;52.540;13.382;2023-07-09T04:13:03;64.60;59.05;67.44;;
73663;Laerm;61956;52.540;13.382;2023-07-09T04:15:35;64.62;59.27;67.39;;
73663;Laerm;61956;52.540;13.382;2023-07-09T04:18:04;64.64;58.89;67.21;;
73663;Laerm;61956;52.540;13.382;2023-07-09T04:20:33;64.65;59.14;67.30;;
73663;Laerm;61956;52.540;13.382;2023-07-09T04:23:05;64.65;59.35;67.19;;
73663;Laerm;61956;52.540;13.382;2023-07-09T04:25:35;64.65;59.35;67.69;;
73663;Laerm;61956;52.540;13.382;2023-07-09T04:28:04;64.62;59.60;67.18;;
73663;Laerm;61956;52.540;13.382;2023-07-09T04:30:37;64.68;60.17;67.26;;
73663;Laerm;61956;52.540;13.382;2023-07-09T04:33:06;64.75;59.34;70.12;;
73663;Laerm;61956;52.540;13.382;2023-07-09T04:35:36;64.40;58.80;67.31;;
73663;Laerm;61956;52.540;13.382;2023-07-09T04:38:05;64.61;59.00;67.25;;
73663;Laerm;61956;52.540;13.382;2023-07-09T04:40:34;64.65;59.92;68.61;;
73663;Laerm;61956;52.540;13.382;2023-07-09T04:43:03;64.69;59.90;68.74;;
73663;Laerm;61956;52.540;13.382;2023-07-09T04:45:35;64.73;60.43;67.34;;
73663;Laerm;61956;52.540;13.382;2023-07-09T04:48:05;64.66;59.21;67.24;;
73663;Laerm;61956;52.540;13.382;2023-07-09T04:50:35;64.65;59.82;67.31;;
73663;Laerm;61956;52.540;13.382;2023-07-09T04:53:06;64.72;59.33;67.34;;
73663;Laerm;61956;52.540;13.382;2023-07-09T04:55:35;64.69;60.21;67.35;;
73663;Laerm;61956;52.540;13.382;2023-07-09T04:58:05;64.71;59.69;67.08;;
73663;Laerm;61956;52.540;13.382;2023-07-09T05:00:37;64.61;59.74;67.53;;
73663;Laerm;61956;52.540;13.382;2023-07-09T05:03:06;64.67;60.02;67.45;;
73663;Laerm;61956;52.540;13.382;2023-07-09T05:05:35;64.73;59.54;68.07;;
73663;Laerm;61956;52.540;13.382;2023-07-09T05:08:11;64.76;59.67;68.84;;
73663;Laerm;61956;52.540;13.382;2023-07-09T05:10:44;64.64;59.98;66.93;;
73663;Laerm;61956;52.540;13.382;2023-07-09T05:13:14;64.64;59.99;67.22;;
73663;Laerm;61956;52.540;13.382;2023-07-09T05:15:47;64.75;60.63;68.05;;
73663;Laerm;61956;52.540;13.382;2023-07-09T05:18:17;64.78;60.46;67.13;;
73663;Laerm;61956;52.540;13.382;2023-07-09T05:20:47;64.70;60.78;67.06;;
73663;Laerm;61956;52.540;13.382;2023-07-09T05:23:16;64.77;60.43;66.97;;
73663;Laerm;61956;52.540;13.382;2023-07-09T05:25:46;64.77;60.25;67.21;;
73663;Laerm;61956;52.540;13.382;2023-07-09T05:28:15;64.68;60.37;67.28;;
73663;Laerm;61956;52.540;13.382;2023-07-09T05:30:48;64.68;60.88;67.10;;
73663;Laerm;61956;52.540;13.382;2023-07-09T05:33:18;64.75;60.33;67.66;;
73663;Laerm;61956;52.540;13.382;2023-07-09T05:35:48;64.69;60.81;67.30;;
73663;Laerm;61956;52.540;13.382;2023-07-09T05:38:17;64.63;60.66;67.24;;
73663;Laerm;61956;52.540;13.382;2023-07-09T05:40:47;64.70;60.03;66.95;;
73663;Laerm;61956;52.540;13.382;2023-07-09T05:43:16;64.63;60.78;67.02;;
73663;Laerm;61956;52.540;13.382;2023-07-09T05:45:50;64.70;61.04;67.18;;
73663;Laerm;61956;52.540;13.382;2023-07-09T05:48:19;64.69;60.97;67.11;;
73663;Laerm;61956;52.540;13.382;2023-07-09T05:50:53;64.64;60.65;66.93;;
73663;Laerm;61956;52.540;13.382;2023-07-09T05:53:24;64.68;60.04;66.95;;
73663;Laerm;61956;52.540;13.382;2023-07-09T05:55:53;64.62;61.06;67.15;;
73663;Laerm;61956;52.540;13.382;2023-07-09T05:58:23;64.86;60.58;70.89;;
73663;Laerm;61956;52.540;13.382;2023-07-09T06:00:55;64.58;60.52;70.22;;
73663;Laerm;61956;52.540;13.382;2023-07-09T06:03:28;64.46;60.71;67.71;;
73663;Laerm;61956;52.540;13.382;2023-07-09T06:05:59;64.50;60.65;66.93;;
73663;Laerm;61956;52.540;13.382;2023-07-09T06:08:29;64.49;60.17;66.95;;
73663;Laerm;61956;52.540;13.382;2023-07-09T06:11:00;64.52;60.78;66.90;;
73663;Laerm;61956;52.540;13.382;2023-07-09T06:13:31;64.43;60.15;67.28;;
73663;Laerm;61956;52.540;13.382;2023-07-09T06:16:04;64.47;59.87;66.94;;
73663;Laerm;61956;52.540;13.382;2023-07-09T06:18:35;64.57;60.34;70.00;;
73663;Laerm;61956;52.540;13.382;2023-07-09T06:21:04;64.30;60.39;66.84;;
73663;Laerm;61956;52.540;13.382;2023-07-09T06:23:35;64.39;60.71;66.70;;
73663;Laerm;61956;52.540;13.382;2023-07-09T06:26:04;64.34;60.67;66.82;;
73663;Laerm;61956;52.540;13.382;2023-07-09T06:28:33;64.37;60.42;67.09;;
73663;Laerm;61956;52.540;13.382;2023-07-09T06:31:05;64.21;60.70;67.02;;
73663;Laerm;61956;52.540;13.382;2023-07-09T06:33:34;64.15;60.02;66.73;;
73663;Laerm;61956;52.540;13.382;2023-07-09T06:36:05;64.18;60.24;66.42;;
73663;Laerm;61956;52.540;13.382;2023-07-09T06:38:37;64.12;60.21;66.38;;
73663;Laerm;61956;52.540;13.382;2023-07-09T06:41:06;64.12;60.11;66.84;;
73663;Laerm;61956;52.540;13.382;2023-07-09T06:43:35;64.08;59.90;66.40;;
73663;Laerm;61956;52.540;13.382;2023-07-09T06:46:11;63.96;59.86;66.40;;
73663;Laerm;61956;52.540;13.382;2023-07-09T06:48:40;63.78;59.30;66.51;;
73663;Laerm;61956;52.540;13.382;2023-07-09T06:51:10;63.58;59.49;66.22;;
73663;Laerm;61956;52.540;13.382;2023-07-09T06:53:39;63.59;59.34;65.99;;
73663;Laerm;61956;52.540;13.382;2023-07-09T06:56:09;63.45;59.14;66.11;;
73663;Laerm;61956;52.540;13.382;2023-07-09T06:58:38;63.30;59.54;65.85;;
73663;Laerm;61956;52.540;13.382;2023-07-09T07:01:09;63.16;59.32;65.83;;
73663;Laerm;61956;52.540;13.382;2023-07-09T07:03:40;63.16;59.64;65.54;;
73663;Laerm;61956;52.540;13.382;2023-07-09T07:06:09;63.07;59.60;66.73;;
73663;Laerm;61956;52.540;13.382;2023-07-09T07:08:38;62.99;59.08;65.52;;
73663;Laerm;61956;52.540;13.382;2023-07-09T07:11:07;63.07;59.90;65.72;;
73663;Laerm;61956;52.540;13.382;2023-07-09T07:13:39;63.03;58.71;65.53;;
73663;Laerm;61956;52.540;13.382;2023-07-09T07:16:12;63.05;59.42;65.51;;
73663;Laerm;61956;52.540;13.382;2023-07-09T07:18:44;63.04;59.25;66.00;;
73663;Laerm;61956;52.540;13.382;2023-07-09T07:21:13;63.10;59.30;65.44;;
73663;Laerm;61956;52.540;13.382;2023-07-09T07:23:43;63.00;59.46;65.49;;
73663;Laerm;61956;52.540;13.382;2023-07-09T07:26:12;63.03;59.59;65.49;;
73663;Laerm;61956;52.540;13.382;2023-07-09T07:28:41;63.01;58.86;65.53;;
73663;Laerm;61956;52.540;13.382;2023-07-09T07:31:13;62.98;59.33;66.16;;
73663;Laerm;61956;52.540;13.382;2023-07-09T07:33:42;63.01;59.47;65.21;;
73663;Laerm;61956;52.540;13.382;2023-07-09T07:36:12;62.96;59.10;65.51;;
73663;Laerm;61956;52.540;13.382;2023-07-09T07:38:41;62.98;59.95;65.37;;
73663;Laerm;61956;52.540;13.382;2023-07-09T07:41:10;63.03;59.59;65.62;;
73663;Laerm;61956;52.540;13.382;2023-07-09T07:43:40;63.04;59.63;67.10;;
73663;Laerm;61956;52.540;13.382;2023-07-09T07:46:12;62.97;59.80;65.46;;
73663;Laerm;61956;52.540;13.382;2023-07-09T07:48:41;63.01;59.75;66.56;;
73663;Laerm;61956;52.540;13.382;2023-07-09T07:51:11;62.95;59.40;65.48;;
73663;Laerm;61956;52.540;13.382;2023-07-09T07:53:40;62.95;59.55;65.63;;
73663;Laerm;61956;52.540;13.382;2023-07-09T07:56:09;62.97;59.95;65.19;;
73663;Laerm;61956;52.540;13.382;2023-07-09T07:58:39;62.98;59.54;65.30;;
73663;Laerm;61956;52.540;13.382;2023-07-09T08:01:10;63.02;59.89;69.06;;
73663;Laerm;61956;52.540;13.382;2023-07-09T08:03:42;62.97;59.50;65.46;;
73663;Laerm;61956;52.540;13.382;2023-07-09T08:06:11;63.05;59.79;65.25;;
73663;Laerm;61956;52.540;13.382;2023-07-09T08:08:40;62.94;60.02;66.74;;
73663;Laerm;61956;52.540;13.382;2023-07-09T08:11:10;62.98;59.61;65.43;;
73663;Laerm;61956;52.540;13.382;2023-07-09T08:13:39;63.03;59.37;65.34;;
73663;Laerm;61956;52.540;13.382;2023-07-09T08:16:09;62.80;59.66;64.86;;
73663;Laerm;61956;52.540;13.382;2023-07-09T08:18:42;62.99;59.37;65.34;;
73663;Laerm;61956;52.540;13.382;2023-07-09T08:21:11;63.00;59.45;65.17;;
73663;Laerm;61956;52.540;13.382;2023-07-09T08:23:40;63.01;59.53;65.68;;
73663;Laerm;61956;52.540;13.382;2023-07-09T08:26:10;62.97;59.66;65.46;;
73663;Laerm;61956;52.540;13.382;2023-07-09T08:28:39;63.05;59.58;65.63;;
73663;Laerm;61956;52.540;13.382;2023-07-09T08:31:08;63.02;59.50;65.21;;
73663;Laerm;61956;52.540;13.382;2023-07-09T08:33:38;63.07;59.05;65.32;;
73663;Laerm;61956;52.540;13.382;2023-07-09T08:36:10;63.07;59.59;65.70;;
73663;Laerm;61956;52.540;13.382;2023-07-09T08:38:40;63.08;59.69;67.35;;
73663;Laerm;61956;52.540;13.382;2023-07-09T08:41:26;63.01;59.69;65.54;;
73663;Laerm;61956;52.540;13.382;2023-07-09T08:44:30;63.03;59.80;65.53;;
73663;Laerm;61956;52.540;13.382;2023-07-09T08:47:11;63.01;58.84;67.16;;
73663;Laerm;61956;52.540;13.382;2023-07-09T08:49:51;63.06;58.75;65.42;;
73663;Laerm;61956;52.540;13.382;2023-07-09T08:52:31;63.01;58.69;65.40;;
73663;Laerm;61956;52.540;13.382;2023-07-09T08:55:08;63.07;59.54;67.30;;
73663;Laerm;61956;52.540;13.382;2023-07-09T08:57:42;63.13;59.31;65.40;;
73663;Laerm;61956;52.540;13.382;2023-07-09T09:00:17;63.15;59.04;65.68;;
73663;Laerm;61956;52.540;13.382;2023-07-09T09:02:52;63.10;59.45;65.62;;
73663;Laerm;61956;52.540;13.382;2023-07-09T09:05:24;63.02;59.03;77.29;;
73663;Laerm;61956;52.540;13.382;2023-07-09T09:08:03;63.14;59.45;65.72;;
73663;Laerm;61956;52.540;13.382;2023-07-09T09:10:41;63.07;59.21;65.67;;
73663;Laerm;61956;52.540;13.382;2023-07-09T09:13:14;63.06;59.32;65.43;;
73663;Laerm;61956;52.540;13.382;2023-07-09T09:15:47;63.07;59.43;65.84;;
73663;Laerm;61956;52.540;13.382;2023-07-09T09:18:22;63.12;59.50;65.74;;
73663;Laerm;61956;52.540;13.382;2023-07-09T09:21:08;63.17;59.68;81.56;;
73663;Laerm;61956;52.540;13.382;2023-07-09T09:23:48;63.13;59.77;66.27;;
73663;Laerm;61956;52.540;13.382;2023-07-09T09:26:24;63.00;59.55;65.73;;
73663;Laerm;61956;52.540;13.382;2023-07-09T09:28:56;63.13;59.52;65.76;;
73663;Laerm;61956;52.540;13.382;2023-07-09T09:31:27;63.09;59.46;65.52;;
73663;Laerm;61956;52.540;13.382;2023-07-09T09:33:57;63.11;59.59;67.04;;
73663;Laerm;61956;52.540;13.382;2023-07-09T09:36:27;63.16;59.62;68.17;;
73663;Laerm;61956;52.540;13.382;2023-07-09T09:39:02;63.18;59.56;65.65;;
73663;Laerm;61956;52.540;13.382;2023-07-09T09:41:36;63.09;59.60;65.61;;
73663;Laerm;61956;52.540;13.382;2023-07-09T09:44:18;63.06;58.90;65.67;;
73663;Laerm;61956;52.540;13.382;2023-07-09T09:46:49;63.12;58.99;65.51;;
73663;Laerm;61956;52.540;13.382;2023-07-09T09:49:18;63.09;59.26;66.05;;
73663;Laerm;61956;52.540;13.382;2023-07-09T09:51:48;63.16;59.62;65.52;;
73663;Laerm;61956;52.540;13.382;2023-07-09T09:54:26;63.14;59.18;65.91;;
73663;Laerm;61956;52.540;13.382;2023-07-09T09:56:56;63.18;59.50;66.25;;
73663;Laerm;61956;52.540;13.382;2023-07-09T09:59:31;63.11;59.46;65.61;;
73663;Laerm;61956;52.540;13.382;2023-07-09T10:02:14;63.08;59.51;65.57;;
73663;Laerm;61956;52.540;13.382;2023-07-09T10:04:44;63.20;59.76;65.81;;
73663;Laerm;61956;52.540;13.382;2023-07-09T10:07:23;63.12;59.29;66.21;;
73663;Laerm;61956;52.540;13.382;2023-07-09T10:10:02;63.16;59.65;65.75;;
73663;Laerm;61956;52.540;13.382;2023-07-09T10:12:49;63.13;59.32;65.87;;
73663;Laerm;61956;52.540;13.382;2023-07-09T10:15:33;63.09;59.53;65.66;;
73663;Laerm;61956;52.540;13.382;2023-07-09T10:18:17;63.14;59.49;66.02;;
73663;Laerm;61956;52.540;13.382;2023-07-09T10:21:05;63.15;59.25;65.70;;
73663;Laerm;61956;52.540;13.382;2023-07-09T10:23:46;63.17;59.14;68.77;;
73663;Laerm;61956;52.540;13.382;2023-07-09T10:26:28;63.19;59.39;65.77;;
73663;Laerm;61956;52.540;13.382;2023-07-09T10:29:36;63.13;59.55;66.39;;
73663;Laerm;61956;52.540;13.382;2023-07-09T10:32:25;63.04;59.35;65.75;;
73663;Laerm;61956;52.540;13.382;2023-07-09T10:35:04;62.85;59.09;65.41;;
73663;Laerm;61956;52.540;13.382;2023-07-09T10:38:06;62.89;59.33;65.69;;
73663;Laerm;61956;52.540;13.382;2023-07-09T10:40:41;63.07;58.92;65.53;;
73663;Laerm;61956;52.540;13.382;2023-07-09T10:43:32;63.11;59.24;65.83;;
73663;Laerm;61956;52.540;13.382;2023-07-09T10:46:10;63.14;59.25;65.99;;
73663;Laerm;61956;52.540;13.382;2023-07-09T10:48:45;63.14;59.13;67.85;;
73663;Laerm;61956;52.540;13.382;2023-07-09T10:51:23;63.13;59.40;65.68;;
73663;Laerm;61956;52.540;13.382;2023-07-09T10:53:59;63.14;59.40;66.04;;
73663;Laerm;61956;52.540;13.382;2023-07-09T10:56:35;63.14;59.45;66.01;;
73663;Laerm;61956;52.540;13.382;2023-07-09T10:59:24;63.23;59.13;68.80;;
73663;Laerm;61956;52.540;13.382;2023-07-09T11:02:04;63.20;58.90;69.77;;
73663;Laerm;61956;52.540;13.382;2023-07-09T11:04:47;63.32;59.42;69.50;;
73663;Laerm;61956;52.540;13.382;2023-07-09T11:07:27;63.20;59.32;65.62;;
73663;Laerm;61956;52.540;13.382;2023-07-09T11:09:59;63.13;59.70;65.60;;
73663;Laerm;61956;52.540;13.382;2023-07-09T11:12:35;63.05;59.32;65.71;;
73663;Laerm;61956;52.540;13.382;2023-07-09T11:15:13;62.90;59.34;66.08;;
73663;Laerm;61956;52.540;13.382;2023-07-09T11:17:46;63.05;59.35;66.26;;
73663;Laerm;61956;52.540;13.382;2023-07-09T11:20:25;63.08;59.63;65.76;;
73663;Laerm;61956;52.540;13.382;2023-07-09T11:23:02;63.04;59.24;65.54;;
73663;Laerm;61956;52.540;13.382;2023-07-09T11:25:42;63.11;59.32;65.63;;
73663;Laerm;61956;52.540;13.382;2023-07-09T11:28:13;63.10;59.40;65.85;;
73663;Laerm;61956;52.540;13.382;2023-07-09T11:30:51;63.17;59.34;65.60;;
73663;Laerm;61956;52.540;13.382;2023-07-09T11:33:29;63.05;59.30;65.83;;
73663;Laerm;61956;52.540;13.382;2023-07-09T11:36:10;63.10;59.29;65.75;;
73663;Laerm;61956;52.540;13.382;2023-07-09T11:38:44;63.25;59.82;66.04;;
73663;Laerm;61956;52.540;13.382;2023-07-09T11:41:38;63.08;59.43;65.73;;
73663;Laerm;61956;52.540;13.382;2023-07-09T11:44:16;63.15;59.21;65.65;;
73663;Laerm;61956;52.540;13.382;2023-07-09T11:49:44;62.74;59.39;65.24;;
73663;Laerm;61956;52.540;13.382;2023-07-09T11:52:23;62.97;58.69;66.05;;
73663;Laerm;61956;52.540;13.382;2023-07-09T11:54:54;63.04;59.51;65.54;;
73663;Laerm;61956;52.540;13.382;2023-07-09T11:57:23;63.02;58.65;65.47;;
73663;Laerm;61956;52.540;13.382;2023-07-09T11:59:53;63.10;59.51;66.06;;
73663;Laerm;61956;52.540;13.382;2023-07-09T12:02:41;63.11;59.34;71.84;;
73663;Laerm;61956;52.540;13.382;2023-07-09T12:05:10;63.11;58.67;65.95;;
73663;Laerm;61956;52.540;13.382;2023-07-09T12:07:41;63.09;59.41;65.39;;
73663;Laerm;61956;52.540;13.382;2023-07-09T12:10:20;63.11;59.47;66.77;;
73663;Laerm;61956;52.540;13.382;2023-07-09T12:12:54;63.12;59.22;65.87;;
73663;Laerm;61956;52.540;13.382;2023-07-09T12:15:26;63.13;59.76;65.97;;
73663;Laerm;61956;52.540;13.382;2023-07-09T12:18:03;63.10;58.95;65.88;;
73663;Laerm;61956;52.540;13.382;2023-07-09T12:20:39;63.07;59.57;65.60;;
73663;Laerm;61956;52.540;13.382;2023-07-09T12:23:22;63.13;59.42;65.67;;
73663;Laerm;61956;52.540;13.382;2023-07-09T12:25:53;63.15;59.48;65.54;;
73663;Laerm;61956;52.540;13.382;2023-07-09T12:28:22;63.12;58.82;69.33;;
73663;Laerm;61956;52.540;13.382;2023-07-09T12:30:53;63.13;59.26;66.43;;
73663;Laerm;61956;52.540;13.382;2023-07-09T12:33:27;63.13;59.35;65.79;;
73663;Laerm;61956;52.540;13.382;2023-07-09T12:35:58;63.07;59.59;65.73;;
73663;Laerm;61956;52.540;13.382;2023-07-09T12:38:40;63.12;58.77;67.39;;
73663;Laerm;61956;52.540;13.382;2023-07-09T12:41:20;63.17;59.41;72.39;;
73663;Laerm;61956;52.540;13.382;2023-07-09T12:43:55;63.20;59.25;73.34;;
73663;Laerm;61956;52.540;13.382;2023-07-09T12:46:25;63.13;59.58;65.72;;
73663;Laerm;61956;52.540;13.382;2023-07-09T12:48:57;63.15;59.34;65.84;;
73663;Laerm;61956;52.540;13.382;2023-07-09T12:51:30;63.08;59.06;65.70;;
73663;Laerm;61956;52.540;13.382;2023-07-09T12:54:14;63.12;59.42;65.75;;
73663;Laerm;61956;52.540;13.382;2023-07-09T12:56:45;63.12;59.41;65.78;;
73663;Laerm;61956;52.540;13.382;2023-07-09T12:59:19;63.13;59.26;65.83;;
73663;Laerm;61956;52.540;13.382;2023-07-09T13:01:54;63.19;59.34;70.41;;
73663;Laerm;61956;52.540;13.382;2023-07-09T13:04:32;63.13;59.62;65.88;;
73663;Laerm;61956;52.540;13.382;2023-07-09T13:07:02;63.12;59.41;69.81;;
73663;Laerm;61956;52.540;13.382;2023-07-09T13:09:34;63.15;59.23;65.77;;
73663;Laerm;61956;52.540;13.382;2023-07-09T13:12:04;63.10;59.48;65.49;;
73663;Laerm;61956;52.540;13.382;2023-07-09T13:14:34;63.02;59.44;65.63;;
73663;Laerm;61956;52.540;13.382;2023-07-09T13:17:06;63.04;59.01;65.94;;
73663;Laerm;61956;52.540;13.382;2023-07-09T13:19:38;63.08;59.35;66.22;;
73663;Laerm;61956;52.540;13.382;2023-07-09T13:22:11;63.03;59.13;65.44;;
73663;Laerm;61956;52.540;13.382;2023-07-09T13:24:45;63.11;59.50;76.21;;
73663;Laerm;61956;52.540;13.382;2023-07-09T13:27:16;63.09;59.67;65.59;;
73663;Laerm;61956;52.540;13.382;2023-07-09T13:29:45;62.99;59.46;65.88;;
73663;Laerm;61956;52.540;13.382;2023-07-09T13:32:16;63.09;59.46;65.36;;
73663;Laerm;61956;52.540;13.382;2023-07-09T13:34:48;63.10;59.61;65.75;;
73663;Laerm;61956;52.540;13.382;2023-07-09T13:37:17;63.17;59.70;65.66;;
73663;Laerm;61956;52.540;13.382;2023-07-09T13:39:46;63.15;59.38;66.00;;
73663;Laerm;61956;52.540;13.382;2023-07-09T13:42:17;63.11;59.38;65.63;;
73663;Laerm;61956;52.540;13.382;2023-07-09T13:44:47;63.02;58.56;65.48;;
73663;Laerm;61956;52.540;13.382;2023-07-09T13:47:18;63.10;58.58;65.85;;
73663;Laerm;61956;52.540;13.382;2023-07-09T13:49:50;63.13;59.72;65.79;;
73663;Laerm;61956;52.540;13.382;2023-07-09T13:52:22;63.06;59.31;65.78;;
73663;Laerm;61956;52.540;13.382;2023-07-09T13:54:52;63.03;59.06;65.44;;
73663;Laerm;61956;52.540;13.382;2023-07-09T13:57:22;63.15;59.14;65.73;;
73663;Laerm;61956;52.540;13.382;2023-07-09T13:59:51;63.15;59.03;65.73;;
73663;Laerm;61956;52.540;13.382;2023-07-09T14:02:25;63.07;59.43;65.47;;
73663;Laerm;61956;52.540;13.382;2023-07-09T14:05:02;63.08;59.41;65.70;;
73663;Laerm;61956;52.540;13.382;2023-07-09T14:07:34;63.13;58.85;65.74;;
73663;Laerm;61956;52.540;13.382;2023-07-09T14:10:11;63.20;59.65;68.87;;
73663;Laerm;61956;52.540;13.382;2023-07-09T14:12:46;64.07;59.48;77.22;;